sensor_id;sensor_type;location;lat;lon;timestamp;temperature;humidity
23683;DHT22;24897;53.514;10.482;2023-09-19T00:01:05;17.40;99.90
23683;DHT22;24897;53.514;10.482;2023-09-19T00:03:51;17.40;99.90
23683;DHT22;24897;53.514;10.482;2023-09-19T00:06:37;17.40;99.90
23683;DHT22;24897;53.514;10.482;2023-09-19T00:09:21;17.30;99.90
23683;DHT22;24897;53.514;10.482;2023-09-19T00:12:06;17.30;99.90
23683;DHT22;24897;53.514;10.482;2023-09-19T00:14:50;17.30;99.90
23683;DHT22;24897;53.514;10.482;2023-09-19T00:17:35;17.30;99.90
23683;DHT22;24897;53.514;10.482;2023-09-19T00:20:21;17.40;99.90
23683;DHT22;24897;53.514;10.482;2023-09-19T00:23:07;17.40;99.90
23683;DHT22;24897;53.514;10.482;2023-09-19T00:25:52;17.40;99.90
23683;DHT22;24897;53.514;10.482;2023-09-19T00:28:41;17.30;99.90
23683;DHT22;24897;53.514;10.482;2023-09-19T00:31:25;17.30;99.90
23683;DHT22;24897;53.514;10.482;2023-09-19T00:34:09;17.30;99.90
23683;DHT22;24897;53.514;10.482;2023-09-19T00:36:54;17.30;99.90
23683;DHT22;24897;53.514;10.482;2023-09-19T00:39:38;17.30;99.90
23683;DHT22;24897;53.514;10.482;2023-09-19T00:42:24;17.30;99.90
23683;DHT22;24897;53.514;10.482;2023-09-19T00:45:10;17.20;99.90
23683;DHT22;24897;53.514;10.482;2023-09-19T00:47:56;17.10;99.90
23683;DHT22;24897;53.514;10.482;2023-09-19T00:50:42;17.10;99.90
23683;DHT22;24897;53.514;10.482;2023-09-19T00:53:27;17.10;99.90
23683;DHT22;24897;53.514;10.482;2023-09-19T00:56:15;17.10;99.90
23683;DHT22;24897;53.514;10.482;2023-09-19T00:59:02;17.00;99.90
23683;DHT22;24897;53.514;10.482;2023-09-19T01:01:46;17.00;99.90
23683;DHT22;24897;53.514;10.482;2023-09-19T01:04:36;17.00;99.90
23683;DHT22;24897;53.514;10.482;2023-09-19T01:07:21;17.10;99.90
23683;DHT22;24897;53.514;10.482;2023-09-19T01:10:12;17.20;99.90
23683;DHT22;24897;53.514;10.482;2023-09-19T01:13:08;17.20;99.90
23683;DHT22;24897;53.514;10.482;2023-09-19T01:26:17;17.00;99.90
23683;DHT22;24897;53.514;10.482;2023-09-19T01:32:19;16.80;99.90
23683;DHT22;24897;53.514;10.482;2023-09-19T01:35:08;16.80;99.90
23683;DHT22;24897;53.514;10.482;2023-09-19T01:37:56;16.80;99.90
23683;DHT22;24897;53.514;10.482;2023-09-19T01:40:48;16.80;99.90
23683;DHT22;24897;53.514;10.482;2023-09-19T01:43:42;16.80;99.90
23683;DHT22;24897;53.514;10.482;2023-09-19T01:46:35;16.80;99.90
23683;DHT22;24897;53.514;10.482;2023-09-19T01:49:33;16.90;99.90
23683;DHT22;24897;53.514;10.482;2023-09-19T01:52:21;16.80;99.90
23683;DHT22;24897;53.514;10.482;2023-09-19T01:55:09;16.80;99.90
23683;DHT22;24897;53.514;10.482;2023-09-19T02:00:44;16.80;99.90
23683;DHT22;24897;53.514;10.482;2023-09-19T02:03:33;16.90;99.90
23683;DHT22;24897;53.514;10.482;2023-09-19T02:06:19;16.90;99.90
23683;DHT22;24897;53.514;10.482;2023-09-19T02:09:04;17.00;99.90
23683;DHT22;24897;53.514;10.482;2023-09-19T02:11:48;17.00;99.90
23683;DHT22;24897;53.514;10.482;2023-09-19T02:14:33;17.00;99.90
23683;DHT22;24897;53.514;10.482;2023-09-19T02:17:18;17.00;99.90
23683;DHT22;24897;53.514;10.482;2023-09-19T02:20:03;17.00;99.90
23683;DHT22;24897;53.514;10.482;2023-09-19T02:22:54;17.00;99.90
23683;DHT22;24897;53.514;10.482;2023-09-19T02:25:39;17.00;99.90
23683;DHT22;24897;53.514;10.482;2023-09-19T02:28:24;17.00;99.90
23683;DHT22;24897;53.514;10.482;2023-09-19T02:31:09;17.00;99.90
23683;DHT22;24897;53.514;10.482;2023-09-19T02:33:55;17.00;99.90
23683;DHT22;24897;53.514;10.482;2023-09-19T02:36:40;17.00;99.90
23683;DHT22;24897;53.514;10.482;2023-09-19T02:39:24;17.00;99.90
23683;DHT22;24897;53.514;10.482;2023-09-19T02:42:08;16.90;99.90
23683;DHT22;24897;53.514;10.482;2023-09-19T02:44:52;16.90;99.90
23683;DHT22;24897;53.514;10.482;2023-09-19T02:47:37;16.80;99.90
23683;DHT22;24897;53.514;10.482;2023-09-19T02:50:21;16.80;99.90
23683;DHT22;24897;53.514;10.482;2023-09-19T02:53:05;16.80;99.90
23683;DHT22;24897;53.514;10.482;2023-09-19T02:55:50;16.70;99.90
23683;DHT22;24897;53.514;10.482;2023-09-19T02:58:38;16.70;99.90
23683;DHT22;24897;53.514;10.482;2023-09-19T03:01:22;16.60;99.90
23683;DHT22;24897;53.514;10.482;2023-09-19T03:04:07;16.60;99.90
23683;DHT22;24897;53.514;10.482;2023-09-19T03:06:52;16.70;99.90
23683;DHT22;24897;53.514;10.482;2023-09-19T03:09:42;16.60;99.90
23683;DHT22;24897;53.514;10.482;2023-09-19T03:12:26;16.60;99.90
23683;DHT22;24897;53.514;10.482;2023-09-19T03:15:11;16.70;99.90
23683;DHT22;24897;53.514;10.482;2023-09-19T03:17:55;16.70;99.90
23683;DHT22;24897;53.514;10.482;2023-09-19T03:20:39;16.80;99.90
23683;DHT22;24897;53.514;10.482;2023-09-19T03:23:23;16.70;99.90
23683;DHT22;24897;53.514;10.482;2023-09-19T03:26:07;16.70;99.90
23683;DHT22;24897;53.514;10.482;2023-09-19T03:28:53;16.80;99.90
23683;DHT22;24897;53.514;10.482;2023-09-19T03:31:37;16.70;99.90
23683;DHT22;24897;53.514;10.482;2023-09-19T03:34:21;16.70;99.90
23683;DHT22;24897;53.514;10.482;2023-09-19T03:37:05;16.70;99.90
23683;DHT22;24897;53.514;10.482;2023-09-19T03:39:50;16.70;99.90
23683;DHT22;24897;53.514;10.482;2023-09-19T03:42:35;16.70;99.90
23683;DHT22;24897;53.514;10.482;2023-09-19T03:45:22;16.70;99.90
23683;DHT22;24897;53.514;10.482;2023-09-19T03:48:11;16.70;99.90
23683;DHT22;24897;53.514;10.482;2023-09-19T03:50:55;16.60;99.90
23683;DHT22;24897;53.514;10.482;2023-09-19T03:53:41;16.60;99.90
23683;DHT22;24897;53.514;10.482;2023-09-19T03:56:25;16.50;99.90
23683;DHT22;24897;53.514;10.482;2023-09-19T03:59:09;16.50;99.90
23683;DHT22;24897;53.514;10.482;2023-09-19T04:01:53;16.50;99.90
23683;DHT22;24897;53.514;10.482;2023-09-19T04:04:40;16.40;99.90
23683;DHT22;24897;53.514;10.482;2023-09-19T04:07:24;16.40;99.90
23683;DHT22;24897;53.514;10.482;2023-09-19T04:10:12;16.40;99.90
23683;DHT22;24897;53.514;10.482;2023-09-19T04:12:58;16.30;99.90
23683;DHT22;24897;53.514;10.482;2023-09-19T04:15:42;16.30;99.90
23683;DHT22;24897;53.514;10.482;2023-09-19T04:18:26;16.20;99.90
23683;DHT22;24897;53.514;10.482;2023-09-19T04:21:11;16.10;99.90
23683;DHT22;24897;53.514;10.482;2023-09-19T04:23:55;16.00;99.90
23683;DHT22;24897;53.514;10.482;2023-09-19T04:26:39;16.00;99.90
23683;DHT22;24897;53.514;10.482;2023-09-19T04:29:23;16.00;99.90
23683;DHT22;24897;53.514;10.482;2023-09-19T04:32:07;15.90;99.90
23683;DHT22;24897;53.514;10.482;2023-09-19T04:34:51;15.80;99.90
23683;DHT22;24897;53.514;10.482;2023-09-19T04:37:38;15.70;99.90
23683;DHT22;24897;53.514;10.482;2023-09-19T04:40:23;15.60;99.90
23683;DHT22;24897;53.514;10.482;2023-09-19T04:43:10;15.60;99.90
23683;DHT22;24897;53.514;10.482;2023-09-19T04:45:54;15.60;99.90
23683;DHT22;24897;53.514;10.482;2023-09-19T04:48:39;15.50;99.90
23683;DHT22;24897;53.514;10.482;2023-09-19T04:51:24;15.50;99.90
23683;DHT22;24897;53.514;10.482;2023-09-19T04:54:09;15.50;99.90
23683;DHT22;24897;53.514;10.482;2023-09-19T04:56:54;15.40;99.90
23683;DHT22;24897;53.514;10.482;2023-09-19T04:59:38;15.30;99.90
23683;DHT22;24897;53.514;10.482;2023-09-19T05:02:24;15.30;99.90
23683;DHT22;24897;53.514;10.482;2023-09-19T05:05:09;15.30;99.90
23683;DHT22;24897;53.514;10.482;2023-09-19T05:07:58;15.20;99.90
23683;DHT22;24897;53.514;10.482;2023-09-19T05:10:43;15.20;99.90
23683;DHT22;24897;53.514;10.482;2023-09-19T05:13:27;15.20;99.90
23683;DHT22;24897;53.514;10.482;2023-09-19T05:16:11;15.10;99.90
23683;DHT22;24897;53.514;10.482;2023-09-19T05:18:55;15.10;99.90
23683;DHT22;24897;53.514;10.482;2023-09-19T05:21:39;15.10;99.90
23683;DHT22;24897;53.514;10.482;2023-09-19T05:24:23;15.10;99.90
23683;DHT22;24897;53.514;10.482;2023-09-19T05:27:10;15.10;99.90
23683;DHT22;24897;53.514;10.482;2023-09-19T05:29:54;15.10;99.90
23683;DHT22;24897;53.514;10.482;2023-09-19T05:32:39;15.10;99.90
23683;DHT22;24897;53.514;10.482;2023-09-19T05:35:24;15.10;99.90
23683;DHT22;24897;53.514;10.482;2023-09-19T05:38:09;15.10;99.90
23683;DHT22;24897;53.514;10.482;2023-09-19T05:40:53;15.10;99.90
23683;DHT22;24897;53.514;10.482;2023-09-19T05:43:37;15.00;99.90
23683;DHT22;24897;53.514;10.482;2023-09-19T05:46:21;15.10;99.90
23683;DHT22;24897;53.514;10.482;2023-09-19T05:49:06;15.00;99.90
23683;DHT22;24897;53.514;10.482;2023-09-19T05:51:50;15.00;99.90
23683;DHT22;24897;53.514;10.482;2023-09-19T05:54:37;15.00;99.90
23683;DHT22;24897;53.514;10.482;2023-09-19T05:57:21;15.00;99.90
23683;DHT22;24897;53.514;10.482;2023-09-19T06:00:06;15.00;99.90
23683;DHT22;24897;53.514;10.482;2023-09-19T06:02:56;15.10;99.90
23683;DHT22;24897;53.514;10.482;2023-09-19T06:05:40;15.10;99.90
23683;DHT22;24897;53.514;10.482;2023-09-19T06:08:25;15.10;99.90
23683;DHT22;24897;53.514;10.482;2023-09-19T06:11:10;15.10;99.90
23683;DHT22;24897;53.514;10.482;2023-09-19T06:13:54;15.20;99.90
23683;DHT22;24897;53.514;10.482;2023-09-19T06:16:38;15.20;99.90
23683;DHT22;24897;53.514;10.482;2023-09-19T06:19:23;15.30;99.90
23683;DHT22;24897;53.514;10.482;2023-09-19T06:22:09;15.30;99.90
23683;DHT22;24897;53.514;10.482;2023-09-19T06:24:54;15.40;99.90
23683;DHT22;24897;53.514;10.482;2023-09-19T06:27:39;15.40;99.90
23683;DHT22;24897;53.514;10.482;2023-09-19T06:30:26;15.40;99.90
23683;DHT22;24897;53.514;10.482;2023-09-19T06:33:13;15.60;99.90
23683;DHT22;24897;53.514;10.482;2023-09-19T06:35:58;15.70;99.90
23683;DHT22;24897;53.514;10.482;2023-09-19T06:38:44;15.80;99.90
23683;DHT22;24897;53.514;10.482;2023-09-19T06:41:29;16.10;99.90
23683;DHT22;24897;53.514;10.482;2023-09-19T06:44:14;16.20;99.90
23683;DHT22;24897;53.514;10.482;2023-09-19T06:46:58;16.20;99.90
23683;DHT22;24897;53.514;10.482;2023-09-19T06:49:43;16.30;99.90
23683;DHT22;24897;53.514;10.482;2023-09-19T06:52:30;16.40;99.90
23683;DHT22;24897;53.514;10.482;2023-09-19T06:55:14;16.30;99.90
23683;DHT22;24897;53.514;10.482;2023-09-19T06:57:59;16.30;99.90
23683;DHT22;24897;53.514;10.482;2023-09-19T07:00:44;16.40;99.90
23683;DHT22;24897;53.514;10.482;2023-09-19T07:03:28;16.50;99.90
23683;DHT22;24897;53.514;10.482;2023-09-19T07:06:13;16.60;99.90
23683;DHT22;24897;53.514;10.482;2023-09-19T07:08:57;16.70;99.90
23683;DHT22;24897;53.514;10.482;2023-09-19T07:11:41;16.70;99.90
23683;DHT22;24897;53.514;10.482;2023-09-19T07:14:25;16.70;99.90
23683;DHT22;24897;53.514;10.482;2023-09-19T07:17:09;16.60;99.90
23683;DHT22;24897;53.514;10.482;2023-09-19T07:19:53;16.60;99.90
23683;DHT22;24897;53.514;10.482;2023-09-19T07:22:37;16.70;99.90
23683;DHT22;24897;53.514;10.482;2023-09-19T07:25:23;16.80;99.90
23683;DHT22;24897;53.514;10.482;2023-09-19T07:28:07;16.70;99.90
23683;DHT22;24897;53.514;10.482;2023-09-19T07:30:51;16.60;99.90
23683;DHT22;24897;53.514;10.482;2023-09-19T07:33:36;16.60;99.90
23683;DHT22;24897;53.514;10.482;2023-09-19T07:36:20;16.60;99.90
23683;DHT22;24897;53.514;10.482;2023-09-19T07:39:05;16.50;99.90
23683;DHT22;24897;53.514;10.482;2023-09-19T07:41:50;16.70;99.90
23683;DHT22;24897;53.514;10.482;2023-09-19T07:44:35;16.80;99.90
23683;DHT22;24897;53.514;10.482;2023-09-19T07:47:20;16.90;99.90
23683;DHT22;24897;53.514;10.482;2023-09-19T07:50:05;16.80;99.90
23683;DHT22;24897;53.514;10.482;2023-09-19T07:52:51;16.80;99.90
23683;DHT22;24897;53.514;10.482;2023-09-19T07:55:36;16.80;99.90
23683;DHT22;24897;53.514;10.482;2023-09-19T07:58:20;16.90;99.90
23683;DHT22;24897;53.514;10.482;2023-09-19T08:01:08;16.90;99.90
23683;DHT22;24897;53.514;10.482;2023-09-19T08:03:52;16.90;99.90
23683;DHT22;24897;53.514;10.482;2023-09-19T08:06:36;17.00;99.90
23683;DHT22;24897;53.514;10.482;2023-09-19T08:09:23;17.20;99.90
23683;DHT22;24897;53.514;10.482;2023-09-19T08:12:07;17.10;99.90
23683;DHT22;24897;53.514;10.482;2023-09-19T08:14:54;17.10;99.90
23683;DHT22;24897;53.514;10.482;2023-09-19T08:17:39;17.00;99.90
23683;DHT22;24897;53.514;10.482;2023-09-19T08:20:24;16.90;99.90
23683;DHT22;24897;53.514;10.482;2023-09-19T08:23:08;17.00;99.90
23683;DHT22;24897;53.514;10.482;2023-09-19T08:25:56;16.90;99.90
23683;DHT22;24897;53.514;10.482;2023-09-19T08:28:40;16.90;99.90
23683;DHT22;24897;53.514;10.482;2023-09-19T08:31:24;16.90;99.90
23683;DHT22;24897;53.514;10.482;2023-09-19T08:34:09;16.80;99.90
23683;DHT22;24897;53.514;10.482;2023-09-19T08:36:54;16.80;99.90
23683;DHT22;24897;53.514;10.482;2023-09-19T08:39:42;16.80;99.90
23683;DHT22;24897;53.514;10.482;2023-09-19T08:42:27;16.70;99.90
23683;DHT22;24897;53.514;10.482;2023-09-19T08:45:11;16.90;99.90
23683;DHT22;24897;53.514;10.482;2023-09-19T08:51:06;17.10;99.90
23683;DHT22;24897;53.514;10.482;2023-09-19T08:53:58;17.00;99.90
23683;DHT22;24897;53.514;10.482;2023-09-19T08:56:48;17.00;99.90
23683;DHT22;24897;53.514;10.482;2023-09-19T08:59:34;17.20;99.90
23683;DHT22;24897;53.514;10.482;2023-09-19T09:02:23;17.30;99.90
23683;DHT22;24897;53.514;10.482;2023-09-19T09:05:09;17.40;99.90
23683;DHT22;24897;53.514;10.482;2023-09-19T09:07:54;17.50;99.90
23683;DHT22;24897;53.514;10.482;2023-09-19T09:10:40;17.50;99.90
23683;DHT22;24897;53.514;10.482;2023-09-19T09:13:27;17.50;99.90
23683;DHT22;24897;53.514;10.482;2023-09-19T09:16:12;17.30;99.90
23683;DHT22;24897;53.514;10.482;2023-09-19T09:18:57;17.40;99.90
23683;DHT22;24897;53.514;10.482;2023-09-19T09:21:41;17.40;99.90
23683;DHT22;24897;53.514;10.482;2023-09-19T09:24:29;17.50;99.90
23683;DHT22;24897;53.514;10.482;2023-09-19T09:27:14;17.60;99.90
23683;DHT22;24897;53.514;10.482;2023-09-19T09:29:59;17.60;99.90
23683;DHT22;24897;53.514;10.482;2023-09-19T09:32:43;17.60;99.90
23683;DHT22;24897;53.514;10.482;2023-09-19T09:35:28;17.60;99.90
23683;DHT22;24897;53.514;10.482;2023-09-19T09:38:12;17.70;99.90
23683;DHT22;24897;53.514;10.482;2023-09-19T09:40:59;17.70;99.90
23683;DHT22;24897;53.514;10.482;2023-09-19T09:43:49;17.90;99.90
23683;DHT22;24897;53.514;10.482;2023-09-19T09:46:33;17.80;99.90
23683;DHT22;24897;53.514;10.482;2023-09-19T09:49:41;18.10;99.90
23683;DHT22;24897;53.514;10.482;2023-09-19T09:52:56;18.50;99.90
23683;DHT22;24897;53.514;10.482;2023-09-19T09:56:16;18.90;99.90
23683;DHT22;24897;53.514;10.482;2023-09-19T09:59:02;18.90;99.90
23683;DHT22;24897;53.514;10.482;2023-09-19T10:01:47;19.00;99.90
23683;DHT22;24897;53.514;10.482;2023-09-19T10:04:32;18.60;99.90
23683;DHT22;24897;53.514;10.482;2023-09-19T10:07:31;18.70;99.90
23683;DHT22;24897;53.514;10.482;2023-09-19T10:10:36;19.00;99.90
23683;DHT22;24897;53.514;10.482;2023-09-19T10:13:29;19.40;99.90
23683;DHT22;24897;53.514;10.482;2023-09-19T10:16:16;19.20;99.90
23683;DHT22;24897;53.514;10.482;2023-09-19T10:19:08;19.20;99.90
23683;DHT22;24897;53.514;10.482;2023-09-19T10:21:54;19.30;99.90
23683;DHT22;24897;53.514;10.482;2023-09-19T10:24:40;19.30;99.90
23683;DHT22;24897;53.514;10.482;2023-09-19T10:27:26;19.40;99.90
23683;DHT22;24897;53.514;10.482;2023-09-19T10:30:11;19.20;99.90
23683;DHT22;24897;53.514;10.482;2023-09-19T10:33:03;19.30;99.90
23683;DHT22;24897;53.514;10.482;2023-09-19T10:35:49;19.50;99.90
23683;DHT22;24897;53.514;10.482;2023-09-19T10:38:39;19.70;99.90
23683;DHT22;24897;53.514;10.482;2023-09-19T10:41:29;19.80;99.90
23683;DHT22;24897;53.514;10.482;2023-09-19T10:44:14;19.80;99.90
23683;DHT22;24897;53.514;10.482;2023-09-19T10:46:58;19.40;99.90
23683;DHT22;24897;53.514;10.482;2023-09-19T10:49:44;19.30;99.90
23683;DHT22;24897;53.514;10.482;2023-09-19T10:52:33;19.20;99.90
23683;DHT22;24897;53.514;10.482;2023-09-19T10:55:20;19.10;99.90
23683;DHT22;24897;53.514;10.482;2023-09-19T10:58:05;19.00;99.90
23683;DHT22;24897;53.514;10.482;2023-09-19T11:00:59;19.00;99.90
23683;DHT22;24897;53.514;10.482;2023-09-19T11:07:14;18.70;99.90
23683;DHT22;24897;53.514;10.482;2023-09-19T11:09:59;18.90;99.90
23683;DHT22;24897;53.514;10.482;2023-09-19T11:12:48;18.90;99.90
23683;DHT22;24897;53.514;10.482;2023-09-19T11:27:13;19.60;99.90
23683;DHT22;24897;53.514;10.482;2023-09-19T11:30:26;19.60;99.90
23683;DHT22;24897;53.514;10.482;2023-09-19T11:33:30;19.20;99.90
23683;DHT22;24897;53.514;10.482;2023-09-19T11:36:16;19.10;99.90
23683;DHT22;24897;53.514;10.482;2023-09-19T11:39:02;19.00;99.90
23683;DHT22;24897;53.514;10.482;2023-09-19T11:41:52;19.00;99.90
23683;DHT22;24897;53.514;10.482;2023-09-19T11:44:40;18.70;99.90
23683;DHT22;24897;53.514;10.482;2023-09-19T11:47:25;18.80;99.90
23683;DHT22;24897;53.514;10.482;2023-09-19T11:50:09;18.90;99.90
23683;DHT22;24897;53.514;10.482;2023-09-19T11:52:55;18.90;99.90
23683;DHT22;24897;53.514;10.482;2023-09-19T11:55:40;19.10;99.90
23683;DHT22;24897;53.514;10.482;2023-09-19T11:58:27;19.20;99.90
23683;DHT22;24897;53.514;10.482;2023-09-19T12:01:14;19.30;99.90
23683;DHT22;24897;53.514;10.482;2023-09-19T12:04:04;19.20;99.90
23683;DHT22;24897;53.514;10.482;2023-09-19T12:06:56;19.50;99.90
23683;DHT22;24897;53.514;10.482;2023-09-19T12:09:45;19.40;99.90
23683;DHT22;24897;53.514;10.482;2023-09-19T12:12:32;19.30;99.90
23683;DHT22;24897;53.514;10.482;2023-09-19T12:15:23;19.50;99.90
23683;DHT22;24897;53.514;10.482;2023-09-19T12:18:31;19.60;99.90
23683;DHT22;24897;53.514;10.482;2023-09-19T12:21:29;19.70;99.90
23683;DHT22;24897;53.514;10.482;2023-09-19T12:24:20;19.80;99.90
23683;DHT22;24897;53.514;10.482;2023-09-19T12:27:06;19.80;99.90
23683;DHT22;24897;53.514;10.482;2023-09-19T12:29:50;19.60;99.90
23683;DHT22;24897;53.514;10.482;2023-09-19T12:32:39;19.70;99.90
23683;DHT22;24897;53.514;10.482;2023-09-19T12:35:31;19.60;99.90
23683;DHT22;24897;53.514;10.482;2023-09-19T12:38:26;19.70;99.90
23683;DHT22;24897;53.514;10.482;2023-09-19T12:41:13;19.60;99.90
23683;DHT22;24897;53.514;10.482;2023-09-19T12:43:58;19.40;99.90
23683;DHT22;24897;53.514;10.482;2023-09-19T12:46:44;19.40;99.90
23683;DHT22;24897;53.514;10.482;2023-09-19T12:49:29;19.40;99.90
23683;DHT22;24897;53.514;10.482;2023-09-19T12:52:13;19.50;99.90
23683;DHT22;24897;53.514;10.482;2023-09-19T12:54:58;19.80;99.90
23683;DHT22;24897;53.514;10.482;2023-09-19T12:58:11;19.90;99.90
23683;DHT22;24897;53.514;10.482;2023-09-19T13:00:56;19.90;99.90
23683;DHT22;24897;53.514;10.482;2023-09-19T13:03:40;19.80;99.90
23683;DHT22;24897;53.514;10.482;2023-09-19T13:06:37;19.90;99.90
23683;DHT22;24897;53.514;10.482;2023-09-19T13:09:23;20.00;99.90
23683;DHT22;24897;53.514;10.482;2023-09-19T13:12:37;20.10;99.90
23683;DHT22;24897;53.514;10.482;2023-09-19T13:15:22;20.10;99.90
23683;DHT22;24897;53.514;10.482;2023-09-19T13:18:12;20.10;99.90
23683;DHT22;24897;53.514;10.482;2023-09-19T13:21:12;20.00;99.90
23683;DHT22;24897;53.514;10.482;2023-09-19T13:24:20;20.10;99.90
23683;DHT22;24897;53.514;10.482;2023-09-19T13:27:05;20.40;99.90
23683;DHT22;24897;53.514;10.482;2023-09-19T13:29:50;20.40;99.90
23683;DHT22;24897;53.514;10.482;2023-09-19T13:32:34;20.40;99.90
23683;DHT22;24897;53.514;10.482;2023-09-19T13:35:19;20.10;99.90
23683;DHT22;24897;53.514;10.482;2023-09-19T13:38:03;20.00;99.90
23683;DHT22;24897;53.514;10.482;2023-09-19T13:40:47;20.40;99.90
23683;DHT22;24897;53.514;10.482;2023-09-19T13:43:31;20.40;99.90
23683;DHT22;24897;53.514;10.482;2023-09-19T13:46:15;20.50;99.90
23683;DHT22;24897;53.514;10.482;2023-09-19T13:49:01;20.60;99.90
23683;DHT22;24897;53.514;10.482;2023-09-19T13:51:47;20.40;99.90
23683;DHT22;24897;53.514;10.482;2023-09-19T13:54:31;20.20;99.90
23683;DHT22;24897;53.514;10.482;2023-09-19T13:57:16;20.20;99.90
23683;DHT22;24897;53.514;10.482;2023-09-19T14:00:00;20.50;99.90
23683;DHT22;24897;53.514;10.482;2023-09-19T14:02:44;20.70;99.90
23683;DHT22;24897;53.514;10.482;2023-09-19T14:05:29;20.60;99.90
23683;DHT22;24897;53.514;10.482;2023-09-19T14:08:14;20.70;99.90
23683;DHT22;24897;53.514;10.482;2023-09-19T14:10:58;20.80;99.90
23683;DHT22;24897;53.514;10.482;2023-09-19T14:13:42;20.80;99.90
23683;DHT22;24897;53.514;10.482;2023-09-19T14:16:31;20.70;99.90
23683;DHT22;24897;53.514;10.482;2023-09-19T14:19:15;20.70;99.90
23683;DHT22;24897;53.514;10.482;2023-09-19T14:22:00;20.90;99.90
23683;DHT22;24897;53.514;10.482;2023-09-19T14:24:51;20.80;99.90
23683;DHT22;24897;53.514;10.482;2023-09-19T14:27:36;20.60;99.90
23683;DHT22;24897;53.514;10.482;2023-09-19T14:30:21;20.30;99.90
23683;DHT22;24897;53.514;10.482;2023-09-19T14:33:05;20.30;99.90
23683;DHT22;24897;53.514;10.482;2023-09-19T14:35:51;20.20;99.90
23683;DHT22;24897;53.514;10.482;2023-09-19T14:38:36;20.20;99.90
23683;DHT22;24897;53.514;10.482;2023-09-19T14:41:21;20.20;99.90
23683;DHT22;24897;53.514;10.482;2023-09-19T14:44:06;20.00;99.90
23683;DHT22;24897;53.514;10.482;2023-09-19T14:46:50;20.10;99.90
23683;DHT22;24897;53.514;10.482;2023-09-19T14:49:35;20.00;99.90
23683;DHT22;24897;53.514;10.482;2023-09-19T14:52:21;20.00;99.90
23683;DHT22;24897;53.514;10.482;2023-09-19T14:55:07;19.90;99.90
23683;DHT22;24897;53.514;10.482;2023-09-19T14:57:53;20.20;99.90
23683;DHT22;24897;53.514;10.482;2023-09-19T15:00:39;20.10;99.90
23683;DHT22;24897;53.514;10.482;2023-09-19T15:03:23;19.90;99.90
23683;DHT22;24897;53.514;10.482;2023-09-19T15:06:12;19.80;99.90
23683;DHT22;24897;53.514;10.482;2023-09-19T15:09:00;19.70;99.90
23683;DHT22;24897;53.514;10.482;2023-09-19T15:11:45;19.70;99.90
23683;DHT22;24897;53.514;10.482;2023-09-19T15:14:29;19.80;99.90
23683;DHT22;24897;53.514;10.482;2023-09-19T15:17:16;19.80;99.90
23683;DHT22;24897;53.514;10.482;2023-09-19T15:20:01;19.90;99.90
23683;DHT22;24897;53.514;10.482;2023-09-19T15:22:46;19.90;99.90
23683;DHT22;24897;53.514;10.482;2023-09-19T15:25:31;20.00;99.90
23683;DHT22;24897;53.514;10.482;2023-09-19T15:28:17;20.00;99.90
23683;DHT22;24897;53.514;10.482;2023-09-19T15:31:03;19.80;99.90
23683;DHT22;24897;53.514;10.482;2023-09-19T15:33:48;19.60;99.90
23683;DHT22;24897;53.514;10.482;2023-09-19T15:36:33;19.50;99.90
23683;DHT22;24897;53.514;10.482;2023-09-19T15:39:17;19.40;99.90
23683;DHT22;24897;53.514;10.482;2023-09-19T15:42:03;19.40;99.90
23683;DHT22;24897;53.514;10.482;2023-09-19T15:44:47;19.40;99.90
23683;DHT22;24897;53.514;10.482;2023-09-19T15:47:33;19.40;99.90
23683;DHT22;24897;53.514;10.482;2023-09-19T15:50:18;19.40;99.90
23683;DHT22;24897;53.514;10.482;2023-09-19T15:53:02;19.30;99.90
23683;DHT22;24897;53.514;10.482;2023-09-19T15:55:46;19.30;99.90
23683;DHT22;24897;53.514;10.482;2023-09-19T15:58:30;19.30;99.90
23683;DHT22;24897;53.514;10.482;2023-09-19T16:01:16;19.30;99.90
23683;DHT22;24897;53.514;10.482;2023-09-19T16:04:00;19.40;99.90
23683;DHT22;24897;53.514;10.482;2023-09-19T16:06:44;19.50;99.90
23683;DHT22;24897;53.514;10.482;2023-09-19T16:09:29;19.40;99.90
23683;DHT22;24897;53.514;10.482;2023-09-19T16:12:13;19.40;99.90
23683;DHT22;24897;53.514;10.482;2023-09-19T16:14:58;19.40;99.90
23683;DHT22;24897;53.514;10.482;2023-09-19T16:17:42;19.30;99.90
23683;DHT22;24897;53.514;10.482;2023-09-19T16:20:26;19.30;99.90
23683;DHT22;24897;53.514;10.482;2023-09-19T16:23:12;19.20;99.90
23683;DHT22;24897;53.514;10.482;2023-09-19T16:28:51;19.30;99.90
23683;DHT22;24897;53.514;10.482;2023-09-19T16:31:36;19.30;99.90
23683;DHT22;24897;53.514;10.482;2023-09-19T16:34:20;19.30;99.90
23683;DHT22;24897;53.514;10.482;2023-09-19T16:37:04;19.30;99.90
23683;DHT22;24897;53.514;10.482;2023-09-19T16:39:48;19.30;99.90
23683;DHT22;24897;53.514;10.482;2023-09-19T16:42:33;19.30;99.90
23683;DHT22;24897;53.514;10.482;2023-09-19T16:45:17;19.30;99.90
23683;DHT22;24897;53.514;10.482;2023-09-19T16:48:02;19.20;99.90
23683;DHT22;24897;53.514;10.482;2023-09-19T16:50:46;19.30;99.90
23683;DHT22;24897;53.514;10.482;2023-09-19T16:53:30;19.20;99.90
23683;DHT22;24897;53.514;10.482;2023-09-19T16:56:15;19.20;99.90
23683;DHT22;24897;53.514;10.482;2023-09-19T16:59:02;19.20;99.90
23683;DHT22;24897;53.514;10.482;2023-09-19T17:01:48;19.10;99.90
23683;DHT22;24897;53.514;10.482;2023-09-19T17:04:32;19.20;99.90
23683;DHT22;24897;53.514;10.482;2023-09-19T17:07:16;19.10;99.90
23683;DHT22;24897;53.514;10.482;2023-09-19T17:10:00;19.20;99.90
23683;DHT22;24897;53.514;10.482;2023-09-19T17:12:45;19.20;99.90
23683;DHT22;24897;53.514;10.482;2023-09-19T17:15:29;19.20;99.90
23683;DHT22;24897;53.514;10.482;2023-09-19T17:18:15;19.20;99.90
23683;DHT22;24897;53.514;10.482;2023-09-19T17:21:00;19.20;99.90
23683;DHT22;24897;53.514;10.482;2023-09-19T17:23:45;19.20;99.90
23683;DHT22;24897;53.514;10.482;2023-09-19T17:26:30;19.20;99.90
23683;DHT22;24897;53.514;10.482;2023-09-19T17:29:14;19.10;99.90
23683;DHT22;24897;53.514;10.482;2023-09-19T17:31:58;19.10;99.90
23683;DHT22;24897;53.514;10.482;2023-09-19T17:34:47;19.10;99.90
23683;DHT22;24897;53.514;10.482;2023-09-19T17:37:33;19.10;99.90
23683;DHT22;24897;53.514;10.482;2023-09-19T17:40:17;19.10;99.90
23683;DHT22;24897;53.514;10.482;2023-09-19T17:43:01;19.10;99.90
23683;DHT22;24897;53.514;10.482;2023-09-19T17:45:47;19.10;99.90
23683;DHT22;24897;53.514;10.482;2023-09-19T17:48:31;19.10;99.90
23683;DHT22;24897;53.514;10.482;2023-09-19T17:51:15;19.20;99.90